Sparta, North Carolina
Current Conditions -  °F | °C
As of 3:15 AM on Tuesday 21 Oct 2014 (Local Time) from KGEV Reporting Station
Overcast Overcast  
Wind Chill: 52°   Ceiling: 2500
Heat Index: 52°   Visibility: 10mi
Dew Point: 42°   Wind: 10mph
Humidity: 69%   Direction: 280°W
Pressure: 29.98"   Gusts: NA
Location:  36.51°N, 81.12°W
Report Text: KGEV 210715Z AUTO 28009KT 10SM BKN025 OVC030 11/06 A2998 RMK AO2 T01120058
Loading
Personal Weather Stations






























Interactive Weather Map
Tropical Storm Tracking
New forecast layout! Learn more

10-Day Weather Forecast

Advertisements
Track Severe Weather on mobile